sensor_id;sensor_type;location;lat;lon;timestamp;P1;durP1;ratioP1;P2;durP2;ratioP2
11034;SDS011;5571;48.110;-1.706;2023-04-03T00:01:14;6.97;;;3.53;;
11034;SDS011;5571;48.110;-1.706;2023-04-03T00:03:41;11.80;;;3.90;;
11034;SDS011;5571;48.110;-1.706;2023-04-03T00:06:07;10.33;;;3.83;;
11034;SDS011;5571;48.110;-1.706;2023-04-03T00:08:36;8.07;;;3.50;;
11034;SDS011;5571;48.110;-1.706;2023-04-03T00:11:02;8.67;;;3.50;;
11034;SDS011;5571;48.110;-1.706;2023-04-03T00:13:28;7.00;;;3.77;;
11034;SDS011;5571;48.110;-1.706;2023-04-03T00:15:54;7.73;;;3.80;;
11034;SDS011;5571;48.110;-1.706;2023-04-03T00:18:19;9.17;;;3.80;;
11034;SDS011;5571;48.110;-1.706;2023-04-03T00:20:45;10.00;;;3.37;;
11034;SDS011;5571;48.110;-1.706;2023-04-03T00:23:11;12.80;;;3.87;;
11034;SDS011;5571;48.110;-1.706;2023-04-03T00:25:37;12.77;;;4.20;;
11034;SDS011;5571;48.110;-1.706;2023-04-03T00:28:03;13.63;;;3.77;;
11034;SDS011;5571;48.110;-1.706;2023-04-03T00:30:28;15.47;;;4.07;;
11034;SDS011;5571;48.110;-1.706;2023-04-03T00:32:54;10.97;;;3.80;;
11034;SDS011;5571;48.110;-1.706;2023-04-03T00:35:20;14.40;;;3.67;;
11034;SDS011;5571;48.110;-1.706;2023-04-03T00:37:47;15.13;;;3.93;;
11034;SDS011;5571;48.110;-1.706;2023-04-03T00:40:15;12.40;;;3.60;;
11034;SDS011;5571;48.110;-1.706;2023-04-03T00:42:42;11.27;;;3.63;;
11034;SDS011;5571;48.110;-1.706;2023-04-03T00:47:43;12.73;;;3.70;;
11034;SDS011;5571;48.110;-1.706;2023-04-03T00:50:09;10.67;;;3.87;;
11034;SDS011;5571;48.110;-1.706;2023-04-03T00:52:35;11.43;;;3.83;;
11034;SDS011;5571;48.110;-1.706;2023-04-03T00:55:04;10.37;;;3.53;;
11034;SDS011;5571;48.110;-1.706;2023-04-03T00:57:32;10.63;;;4.40;;
11034;SDS011;5571;48.110;-1.706;2023-04-03T01:00:04;7.80;;;3.40;;
11034;SDS011;5571;48.110;-1.706;2023-04-03T01:02:32;12.57;;;3.77;;
11034;SDS011;5571;48.110;-1.706;2023-04-03T01:04:57;15.70;;;4.00;;
11034;SDS011;5571;48.110;-1.706;2023-04-03T01:07:24;15.23;;;3.87;;
11034;SDS011;5571;48.110;-1.706;2023-04-03T01:09:56;14.93;;;3.73;;
11034;SDS011;5571;48.110;-1.706;2023-04-03T01:12:27;12.33;;;3.90;;
11034;SDS011;5571;48.110;-1.706;2023-04-03T01:14:56;13.03;;;3.83;;
11034;SDS011;5571;48.110;-1.706;2023-04-03T01:25:48;20.70;;;4.67;;
11034;SDS011;5571;48.110;-1.706;2023-04-03T01:28:20;12.80;;;4.23;;
11034;SDS011;5571;48.110;-1.706;2023-04-03T01:30:59;14.77;;;3.70;;
11034;SDS011;5571;48.110;-1.706;2023-04-03T01:33:35;20.17;;;4.80;;
11034;SDS011;5571;48.110;-1.706;2023-04-03T01:36:02;17.70;;;4.27;;
11034;SDS011;5571;48.110;-1.706;2023-04-03T01:38:28;15.67;;;3.70;;
11034;SDS011;5571;48.110;-1.706;2023-04-03T01:40:54;18.57;;;4.00;;
11034;SDS011;5571;48.110;-1.706;2023-04-03T01:43:20;13.97;;;3.87;;
11034;SDS011;5571;48.110;-1.706;2023-04-03T01:45:45;17.17;;;4.47;;
11034;SDS011;5571;48.110;-1.706;2023-04-03T01:48:11;15.67;;;3.63;;
11034;SDS011;5571;48.110;-1.706;2023-04-03T01:50:38;15.77;;;4.00;;
11034;SDS011;5571;48.110;-1.706;2023-04-03T01:53:03;12.33;;;4.00;;
11034;SDS011;5571;48.110;-1.706;2023-04-03T01:55:29;15.47;;;4.10;;
11034;SDS011;5571;48.110;-1.706;2023-04-03T01:57:55;12.63;;;3.60;;
11034;SDS011;5571;48.110;-1.706;2023-04-03T02:00:21;19.03;;;4.33;;
11034;SDS011;5571;48.110;-1.706;2023-04-03T02:02:46;16.63;;;3.80;;
11034;SDS011;5571;48.110;-1.706;2023-04-03T02:05:12;16.60;;;3.90;;
11034;SDS011;5571;48.110;-1.706;2023-04-03T02:07:38;14.17;;;3.30;;
11034;SDS011;5571;48.110;-1.706;2023-04-03T02:10:03;14.33;;;4.10;;
11034;SDS011;5571;48.110;-1.706;2023-04-03T02:12:29;12.90;;;3.90;;
11034;SDS011;5571;48.110;-1.706;2023-04-03T02:14:55;18.17;;;3.87;;
11034;SDS011;5571;48.110;-1.706;2023-04-03T02:17:21;16.20;;;3.97;;
11034;SDS011;5571;48.110;-1.706;2023-04-03T02:19:46;13.93;;;4.30;;
11034;SDS011;5571;48.110;-1.706;2023-04-03T02:22:12;11.70;;;3.90;;
11034;SDS011;5571;48.110;-1.706;2023-04-03T02:24:38;16.37;;;4.10;;
11034;SDS011;5571;48.110;-1.706;2023-04-03T02:27:05;16.97;;;4.43;;
11034;SDS011;5571;48.110;-1.706;2023-04-03T02:29:30;20.33;;;4.53;;
11034;SDS011;5571;48.110;-1.706;2023-04-03T02:31:56;14.67;;;3.83;;
11034;SDS011;5571;48.110;-1.706;2023-04-03T02:34:22;17.63;;;3.90;;
11034;SDS011;5571;48.110;-1.706;2023-04-03T02:36:47;16.37;;;3.60;;
11034;SDS011;5571;48.110;-1.706;2023-04-03T02:39:13;18.63;;;3.97;;
11034;SDS011;5571;48.110;-1.706;2023-04-03T02:41:39;17.03;;;3.80;;
11034;SDS011;5571;48.110;-1.706;2023-04-03T02:44:08;16.67;;;4.10;;
11034;SDS011;5571;48.110;-1.706;2023-04-03T02:46:35;12.03;;;3.30;;
11034;SDS011;5571;48.110;-1.706;2023-04-03T02:49:01;15.67;;;3.87;;
11034;SDS011;5571;48.110;-1.706;2023-04-03T02:51:26;14.17;;;3.93;;
11034;SDS011;5571;48.110;-1.706;2023-04-03T02:53:52;13.23;;;4.00;;
11034;SDS011;5571;48.110;-1.706;2023-04-03T02:56:17;11.87;;;3.50;;
11034;SDS011;5571;48.110;-1.706;2023-04-03T02:58:44;20.00;;;3.70;;
11034;SDS011;5571;48.110;-1.706;2023-04-03T03:01:10;10.33;;;3.70;;
11034;SDS011;5571;48.110;-1.706;2023-04-03T03:03:36;17.27;;;4.70;;
11034;SDS011;5571;48.110;-1.706;2023-04-03T03:06:03;15.33;;;3.60;;
11034;SDS011;5571;48.110;-1.706;2023-04-03T03:08:34;12.20;;;4.07;;
11034;SDS011;5571;48.110;-1.706;2023-04-03T03:11:00;19.97;;;4.53;;
11034;SDS011;5571;48.110;-1.706;2023-04-03T03:13:26;20.50;;;3.60;;
11034;SDS011;5571;48.110;-1.706;2023-04-03T03:15:52;15.40;;;4.27;;
11034;SDS011;5571;48.110;-1.706;2023-04-03T03:18:17;16.87;;;3.90;;
11034;SDS011;5571;48.110;-1.706;2023-04-03T03:20:43;18.00;;;3.90;;
11034;SDS011;5571;48.110;-1.706;2023-04-03T03:23:09;9.97;;;3.63;;
11034;SDS011;5571;48.110;-1.706;2023-04-03T03:25:38;14.93;;;3.70;;
11034;SDS011;5571;48.110;-1.706;2023-04-03T03:28:05;14.57;;;3.90;;
11034;SDS011;5571;48.110;-1.706;2023-04-03T03:30:31;13.10;;;3.53;;
11034;SDS011;5571;48.110;-1.706;2023-04-03T03:32:57;9.10;;;3.53;;
11034;SDS011;5571;48.110;-1.706;2023-04-03T03:35:23;12.47;;;4.20;;
11034;SDS011;5571;48.110;-1.706;2023-04-03T03:37:48;15.03;;;4.27;;
11034;SDS011;5571;48.110;-1.706;2023-04-03T03:40:14;14.30;;;4.53;;
11034;SDS011;5571;48.110;-1.706;2023-04-03T03:42:40;16.90;;;4.30;;
11034;SDS011;5571;48.110;-1.706;2023-04-03T03:45:06;12.10;;;3.77;;
11034;SDS011;5571;48.110;-1.706;2023-04-03T03:47:32;15.10;;;4.17;;
11034;SDS011;5571;48.110;-1.706;2023-04-03T03:49:58;13.97;;;4.07;;
11034;SDS011;5571;48.110;-1.706;2023-04-03T03:52:24;15.30;;;4.20;;
11034;SDS011;5571;48.110;-1.706;2023-04-03T03:54:49;11.17;;;3.43;;
11034;SDS011;5571;48.110;-1.706;2023-04-03T03:57:15;19.77;;;4.10;;
11034;SDS011;5571;48.110;-1.706;2023-04-03T03:59:41;15.37;;;3.70;;
11034;SDS011;5571;48.110;-1.706;2023-04-03T04:02:07;19.87;;;4.07;;
11034;SDS011;5571;48.110;-1.706;2023-04-03T04:04:33;14.30;;;3.67;;
11034;SDS011;5571;48.110;-1.706;2023-04-03T04:06:59;16.37;;;4.00;;
11034;SDS011;5571;48.110;-1.706;2023-04-03T04:09:25;12.37;;;3.97;;
11034;SDS011;5571;48.110;-1.706;2023-04-03T04:11:51;16.13;;;4.10;;
11034;SDS011;5571;48.110;-1.706;2023-04-03T04:14:17;11.83;;;3.57;;
11034;SDS011;5571;48.110;-1.706;2023-04-03T04:16:45;16.73;;;4.07;;
11034;SDS011;5571;48.110;-1.706;2023-04-03T04:19:11;10.80;;;3.83;;
11034;SDS011;5571;48.110;-1.706;2023-04-03T04:21:37;13.90;;;3.17;;
11034;SDS011;5571;48.110;-1.706;2023-04-03T04:24:03;13.53;;;4.00;;
11034;SDS011;5571;48.110;-1.706;2023-04-03T04:26:29;13.77;;;3.30;;
11034;SDS011;5571;48.110;-1.706;2023-04-03T04:28:54;13.67;;;3.90;;
11034;SDS011;5571;48.110;-1.706;2023-04-03T04:31:20;17.40;;;4.07;;
11034;SDS011;5571;48.110;-1.706;2023-04-03T04:33:46;12.97;;;3.60;;
11034;SDS011;5571;48.110;-1.706;2023-04-03T04:36:11;12.20;;;4.00;;
11034;SDS011;5571;48.110;-1.706;2023-04-03T04:38:37;16.00;;;3.60;;
11034;SDS011;5571;48.110;-1.706;2023-04-03T04:41:03;13.87;;;3.90;;
11034;SDS011;5571;48.110;-1.706;2023-04-03T04:43:29;16.60;;;3.93;;
11034;SDS011;5571;48.110;-1.706;2023-04-03T04:46:05;16.73;;;3.83;;
11034;SDS011;5571;48.110;-1.706;2023-04-03T04:48:32;16.23;;;3.87;;
11034;SDS011;5571;48.110;-1.706;2023-04-03T04:50:59;13.57;;;3.80;;
11034;SDS011;5571;48.110;-1.706;2023-04-03T04:53:24;12.83;;;3.17;;
11034;SDS011;5571;48.110;-1.706;2023-04-03T04:55:51;14.03;;;3.90;;
11034;SDS011;5571;48.110;-1.706;2023-04-03T04:58:17;17.13;;;3.73;;
11034;SDS011;5571;48.110;-1.706;2023-04-03T05:00:42;15.37;;;3.90;;
11034;SDS011;5571;48.110;-1.706;2023-04-03T05:03:08;11.57;;;3.90;;
11034;SDS011;5571;48.110;-1.706;2023-04-03T05:05:34;13.17;;;3.83;;
11034;SDS011;5571;48.110;-1.706;2023-04-03T05:08:00;11.80;;;3.77;;
11034;SDS011;5571;48.110;-1.706;2023-04-03T05:10:27;10.27;;;3.27;;
11034;SDS011;5571;48.110;-1.706;2023-04-03T05:12:53;12.97;;;3.97;;
11034;SDS011;5571;48.110;-1.706;2023-04-03T05:15:18;14.50;;;3.90;;
11034;SDS011;5571;48.110;-1.706;2023-04-03T05:17:44;11.87;;;3.13;;
11034;SDS011;5571;48.110;-1.706;2023-04-03T05:20:10;13.63;;;3.50;;
11034;SDS011;5571;48.110;-1.706;2023-04-03T05:22:36;14.33;;;3.40;;
11034;SDS011;5571;48.110;-1.706;2023-04-03T05:25:02;9.60;;;3.60;;
11034;SDS011;5571;48.110;-1.706;2023-04-03T05:27:28;14.93;;;3.73;;
11034;SDS011;5571;48.110;-1.706;2023-04-03T05:29:54;13.70;;;3.60;;
11034;SDS011;5571;48.110;-1.706;2023-04-03T05:32:20;13.87;;;3.63;;
11034;SDS011;5571;48.110;-1.706;2023-04-03T05:34:47;15.23;;;3.97;;
11034;SDS011;5571;48.110;-1.706;2023-04-03T05:37:12;11.00;;;3.70;;
11034;SDS011;5571;48.110;-1.706;2023-04-03T05:39:38;14.10;;;3.47;;
11034;SDS011;5571;48.110;-1.706;2023-04-03T05:42:05;13.43;;;3.53;;
11034;SDS011;5571;48.110;-1.706;2023-04-03T05:44:32;9.33;;;3.73;;
11034;SDS011;5571;48.110;-1.706;2023-04-03T05:46:57;9.03;;;3.83;;
11034;SDS011;5571;48.110;-1.706;2023-04-03T05:49:23;10.00;;;3.77;;
11034;SDS011;5571;48.110;-1.706;2023-04-03T05:51:49;15.83;;;4.30;;
11034;SDS011;5571;48.110;-1.706;2023-04-03T05:57:00;15.60;;;4.23;;
11034;SDS011;5571;48.110;-1.706;2023-04-03T05:59:25;16.23;;;4.10;;
11034;SDS011;5571;48.110;-1.706;2023-04-03T06:01:51;13.03;;;3.97;;
11034;SDS011;5571;48.110;-1.706;2023-04-03T06:04:17;7.03;;;3.30;;
11034;SDS011;5571;48.110;-1.706;2023-04-03T06:09:14;13.13;;;3.50;;
11034;SDS011;5571;48.110;-1.706;2023-04-03T06:11:41;13.67;;;3.70;;
11034;SDS011;5571;48.110;-1.706;2023-04-03T06:14:07;16.13;;;5.17;;
11034;SDS011;5571;48.110;-1.706;2023-04-03T06:16:33;10.37;;;4.13;;
11034;SDS011;5571;48.110;-1.706;2023-04-03T06:18:59;7.03;;;3.93;;
11034;SDS011;5571;48.110;-1.706;2023-04-03T06:21:24;15.33;;;4.03;;
11034;SDS011;5571;48.110;-1.706;2023-04-03T06:23:50;8.47;;;3.50;;
11034;SDS011;5571;48.110;-1.706;2023-04-03T06:26:16;11.37;;;3.97;;
11034;SDS011;5571;48.110;-1.706;2023-04-03T06:28:42;7.40;;;3.27;;
11034;SDS011;5571;48.110;-1.706;2023-04-03T06:31:08;12.90;;;3.70;;
11034;SDS011;5571;48.110;-1.706;2023-04-03T06:33:34;9.50;;;3.80;;
11034;SDS011;5571;48.110;-1.706;2023-04-03T06:36:00;6.53;;;3.50;;
11034;SDS011;5571;48.110;-1.706;2023-04-03T06:38:29;9.47;;;3.83;;
11034;SDS011;5571;48.110;-1.706;2023-04-03T06:40:55;12.90;;;3.57;;
11034;SDS011;5571;48.110;-1.706;2023-04-03T06:43:21;12.53;;;3.90;;
11034;SDS011;5571;48.110;-1.706;2023-04-03T06:45:47;9.17;;;3.60;;
11034;SDS011;5571;48.110;-1.706;2023-04-03T06:48:12;10.03;;;3.67;;
11034;SDS011;5571;48.110;-1.706;2023-04-03T06:50:38;8.63;;;4.20;;
11034;SDS011;5571;48.110;-1.706;2023-04-03T06:53:04;9.13;;;4.10;;
11034;SDS011;5571;48.110;-1.706;2023-04-03T06:55:30;13.93;;;4.03;;
11034;SDS011;5571;48.110;-1.706;2023-04-03T06:57:56;10.67;;;3.93;;
11034;SDS011;5571;48.110;-1.706;2023-04-03T07:00:22;9.13;;;3.83;;
11034;SDS011;5571;48.110;-1.706;2023-04-03T07:02:48;11.10;;;4.17;;
11034;SDS011;5571;48.110;-1.706;2023-04-03T07:05:13;10.37;;;3.87;;
11034;SDS011;5571;48.110;-1.706;2023-04-03T07:07:39;9.13;;;4.40;;
11034;SDS011;5571;48.110;-1.706;2023-04-03T07:10:06;10.70;;;4.60;;
11034;SDS011;5571;48.110;-1.706;2023-04-03T07:12:33;13.07;;;4.10;;
11034;SDS011;5571;48.110;-1.706;2023-04-03T07:14:58;8.27;;;3.70;;
11034;SDS011;5571;48.110;-1.706;2023-04-03T07:17:24;13.93;;;4.10;;
11034;SDS011;5571;48.110;-1.706;2023-04-03T07:19:50;6.67;;;4.10;;
11034;SDS011;5571;48.110;-1.706;2023-04-03T07:22:16;8.63;;;4.20;;
11034;SDS011;5571;48.110;-1.706;2023-04-03T07:24:42;14.97;;;4.63;;
11034;SDS011;5571;48.110;-1.706;2023-04-03T07:27:08;7.90;;;4.40;;
11034;SDS011;5571;48.110;-1.706;2023-04-03T07:29:34;12.20;;;4.70;;
11034;SDS011;5571;48.110;-1.706;2023-04-03T07:32:00;10.85;;;4.53;;
11034;SDS011;5571;48.110;-1.706;2023-04-03T07:34:27;8.67;;;4.10;;
11034;SDS011;5571;48.110;-1.706;2023-04-03T07:36:52;8.23;;;4.53;;
11034;SDS011;5571;48.110;-1.706;2023-04-03T07:39:18;9.70;;;4.63;;
11034;SDS011;5571;48.110;-1.706;2023-04-03T07:41:44;7.10;;;4.10;;
11034;SDS011;5571;48.110;-1.706;2023-04-03T07:44:09;7.67;;;4.53;;
11034;SDS011;5571;48.110;-1.706;2023-04-03T07:46:35;12.07;;;5.90;;
11034;SDS011;5571;48.110;-1.706;2023-04-03T07:49:02;10.53;;;5.10;;
11034;SDS011;5571;48.110;-1.706;2023-04-03T07:51:27;8.73;;;4.73;;
11034;SDS011;5571;48.110;-1.706;2023-04-03T07:53:54;6.43;;;4.87;;
11034;SDS011;5571;48.110;-1.706;2023-04-03T07:56:20;6.87;;;4.60;;
11034;SDS011;5571;48.110;-1.706;2023-04-03T07:58:46;7.40;;;4.60;;
11034;SDS011;5571;48.110;-1.706;2023-04-03T08:01:11;10.40;;;4.77;;
11034;SDS011;5571;48.110;-1.706;2023-04-03T08:03:38;8.87;;;5.23;;
11034;SDS011;5571;48.110;-1.706;2023-04-03T08:06:04;13.37;;;5.47;;
11034;SDS011;5571;48.110;-1.706;2023-04-03T08:08:31;9.97;;;5.20;;
11034;SDS011;5571;48.110;-1.706;2023-04-03T08:10:58;8.80;;;5.23;;
11034;SDS011;5571;48.110;-1.706;2023-04-03T08:13:25;10.33;;;5.33;;
11034;SDS011;5571;48.110;-1.706;2023-04-03T08:15:51;9.33;;;5.30;;
11034;SDS011;5571;48.110;-1.706;2023-04-03T08:18:17;9.93;;;5.47;;
11034;SDS011;5571;48.110;-1.706;2023-04-03T08:20:43;11.50;;;5.50;;
11034;SDS011;5571;48.110;-1.706;2023-04-03T08:23:09;11.33;;;5.70;;
11034;SDS011;5571;48.110;-1.706;2023-04-03T08:25:39;6.50;;;5.30;;
11034;SDS011;5571;48.110;-1.706;2023-04-03T08:28:06;7.30;;;5.37;;
11034;SDS011;5571;48.110;-1.706;2023-04-03T08:30:32;8.47;;;5.80;;
11034;SDS011;5571;48.110;-1.706;2023-04-03T08:33:00;9.70;;;5.43;;
11034;SDS011;5571;48.110;-1.706;2023-04-03T08:35:26;9.30;;;5.47;;
11034;SDS011;5571;48.110;-1.706;2023-04-03T08:37:52;11.50;;;5.90;;
11034;SDS011;5571;48.110;-1.706;2023-04-03T08:40:18;10.07;;;5.90;;
11034;SDS011;5571;48.110;-1.706;2023-04-03T08:43:11;10.60;;;5.70;;
11034;SDS011;5571;48.110;-1.706;2023-04-03T08:51:15;12.07;;;6.07;;
11034;SDS011;5571;48.110;-1.706;2023-04-03T08:54:01;10.63;;;5.80;;
11034;SDS011;5571;48.110;-1.706;2023-04-03T08:56:31;10.00;;;5.90;;
11034;SDS011;5571;48.110;-1.706;2023-04-03T08:59:00;8.57;;;6.20;;
11034;SDS011;5571;48.110;-1.706;2023-04-03T09:04:05;9.03;;;6.10;;
11034;SDS011;5571;48.110;-1.706;2023-04-03T09:06:36;10.97;;;6.70;;
11034;SDS011;5571;48.110;-1.706;2023-04-03T09:09:30;8.90;;;6.43;;
11034;SDS011;5571;48.110;-1.706;2023-04-03T09:12:15;9.27;;;6.40;;
11034;SDS011;5571;48.110;-1.706;2023-04-03T09:22:38;8.67;;;6.67;;
11034;SDS011;5571;48.110;-1.706;2023-04-03T09:25:13;9.37;;;7.20;;
11034;SDS011;5571;48.110;-1.706;2023-04-03T09:28:00;11.33;;;7.40;;
11034;SDS011;5571;48.110;-1.706;2023-04-03T09:30:26;9.63;;;7.87;;
11034;SDS011;5571;48.110;-1.706;2023-04-03T09:32:54;9.47;;;7.80;;
11034;SDS011;5571;48.110;-1.706;2023-04-03T09:35:25;9.70;;;7.80;;
11034;SDS011;5571;48.110;-1.706;2023-04-03T09:38:00;9.87;;;8.00;;
11034;SDS011;5571;48.110;-1.706;2023-04-03T09:41:22;8.17;;;7.20;;
11034;SDS011;5571;48.110;-1.706;2023-04-03T09:43:37;8.87;;;7.97;;
11034;SDS011;5571;48.110;-1.706;2023-04-03T09:46:48;10.97;;;7.87;;
11034;SDS011;5571;48.110;-1.706;2023-04-03T09:48:57;10.40;;;8.17;;
11034;SDS011;5571;48.110;-1.706;2023-04-03T09:51:25;15.53;;;8.57;;
11034;SDS011;5571;48.110;-1.706;2023-04-03T09:53:54;9.80;;;8.13;;
11034;SDS011;5571;48.110;-1.706;2023-04-03T09:56:22;9.93;;;7.87;;
11034;SDS011;5571;48.110;-1.706;2023-04-03T10:01:28;9.63;;;8.50;;
11034;SDS011;5571;48.110;-1.706;2023-04-03T10:06:36;11.63;;;8.50;;
11034;SDS011;5571;48.110;-1.706;2023-04-03T10:09:10;10.17;;;8.73;;
11034;SDS011;5571;48.110;-1.706;2023-04-03T10:14:26;11.80;;;8.93;;
11034;SDS011;5571;48.110;-1.706;2023-04-03T10:17:03;9.20;;;8.07;;
11034;SDS011;5571;48.110;-1.706;2023-04-03T10:19:58;10.90;;;9.00;;
11034;SDS011;5571;48.110;-1.706;2023-04-03T10:27:55;10.27;;;8.43;;
11034;SDS011;5571;48.110;-1.706;2023-04-03T10:33:38;9.63;;;8.63;;
11034;SDS011;5571;48.110;-1.706;2023-04-03T10:44:24;11.33;;;10.00;;
11034;SDS011;5571;48.110;-1.706;2023-04-03T10:55:06;10.97;;;9.07;;
11034;SDS011;5571;48.110;-1.706;2023-04-03T10:57:39;9.67;;;8.67;;
11034;SDS011;5571;48.110;-1.706;2023-04-03T11:00:07;10.53;;;9.27;;
11034;SDS011;5571;48.110;-1.706;2023-04-03T11:02:53;10.67;;;9.33;;
11034;SDS011;5571;48.110;-1.706;2023-04-03T11:05:25;10.93;;;9.40;;
11034;SDS011;5571;48.110;-1.706;2023-04-03T11:07:55;11.03;;;9.80;;
11034;SDS011;5571;48.110;-1.706;2023-04-03T11:10:46;10.47;;;9.47;;
11034;SDS011;5571;48.110;-1.706;2023-04-03T11:13:13;9.70;;;8.70;;
11034;SDS011;5571;48.110;-1.706;2023-04-03T11:15:42;9.80;;;8.83;;
11034;SDS011;5571;48.110;-1.706;2023-04-03T11:18:19;9.77;;;8.80;;
11034;SDS011;5571;48.110;-1.706;2023-04-03T11:20:59;9.37;;;8.50;;
11034;SDS011;5571;48.110;-1.706;2023-04-03T11:23:31;10.00;;;8.20;;
11034;SDS011;5571;48.110;-1.706;2023-04-03T11:26:08;9.30;;;8.40;;
11034;SDS011;5571;48.110;-1.706;2023-04-03T11:28:37;9.20;;;8.20;;
11034;SDS011;5571;48.110;-1.706;2023-04-03T11:36:44;9.20;;;8.30;;
11034;SDS011;5571;48.110;-1.706;2023-04-03T11:41:47;10.50;;;8.83;;
11034;SDS011;5571;48.110;-1.706;2023-04-03T11:46:59;9.20;;;8.30;;
11034;SDS011;5571;48.110;-1.706;2023-04-03T12:05:53;7.90;;;7.20;;
11034;SDS011;5571;48.110;-1.706;2023-04-03T12:16:05;8.93;;;7.60;;
11034;SDS011;5571;48.110;-1.706;2023-04-03T12:21:07;7.70;;;7.00;;
11034;SDS011;5571;48.110;-1.706;2023-04-03T12:23:35;7.13;;;6.53;;
11034;SDS011;5571;48.110;-1.706;2023-04-03T12:26:21;7.67;;;6.93;;
11034;SDS011;5571;48.110;-1.706;2023-04-03T12:28:51;7.10;;;6.40;;
11034;SDS011;5571;48.110;-1.706;2023-04-03T12:31:18;7.47;;;6.77;;
11034;SDS011;5571;48.110;-1.706;2023-04-03T12:36:42;6.33;;;5.73;;
11034;SDS011;5571;48.110;-1.706;2023-04-03T12:42:13;7.83;;;6.07;;
11034;SDS011;5571;48.110;-1.706;2023-04-03T12:44:57;10.00;;;8.63;;
11034;SDS011;5571;48.110;-1.706;2023-04-03T12:47:33;6.30;;;5.70;;
11034;SDS011;5571;48.110;-1.706;2023-04-03T12:50:04;18.07;;;13.97;;
11034;SDS011;5571;48.110;-1.706;2023-04-03T12:52:51;8.03;;;6.90;;
11034;SDS011;5571;48.110;-1.706;2023-04-03T12:55:22;8.20;;;7.40;;
11034;SDS011;5571;48.110;-1.706;2023-04-03T12:57:48;8.40;;;5.63;;
11034;SDS011;5571;48.110;-1.706;2023-04-03T13:00:27;6.40;;;5.90;;
11034;SDS011;5571;48.110;-1.706;2023-04-03T13:02:57;8.17;;;5.87;;
11034;SDS011;5571;48.110;-1.706;2023-04-03T13:05:23;9.33;;;5.80;;
11034;SDS011;5571;48.110;-1.706;2023-04-03T13:07:52;7.80;;;6.90;;
11034;SDS011;5571;48.110;-1.706;2023-04-03T13:10:23;8.80;;;6.10;;
11034;SDS011;5571;48.110;-1.706;2023-04-03T13:15:16;9.47;;;6.67;;
11034;SDS011;5571;48.110;-1.706;2023-04-03T13:17:44;8.57;;;6.17;;
11034;SDS011;5571;48.110;-1.706;2023-04-03T13:20:11;6.70;;;5.50;;
11034;SDS011;5571;48.110;-1.706;2023-04-03T13:22:43;5.17;;;4.67;;
11034;SDS011;5571;48.110;-1.706;2023-04-03T13:25:24;5.77;;;4.90;;
11034;SDS011;5571;48.110;-1.706;2023-04-03T13:27:52;5.77;;;5.13;;
11034;SDS011;5571;48.110;-1.706;2023-04-03T13:32:47;6.80;;;5.23;;
11034;SDS011;5571;48.110;-1.706;2023-04-03T13:35:56;5.30;;;4.80;;
11034;SDS011;5571;48.110;-1.706;2023-04-03T13:43:25;4.60;;;4.20;;
11034;SDS011;5571;48.110;-1.706;2023-04-03T13:45:56;6.17;;;5.57;;
11034;SDS011;5571;48.110;-1.706;2023-04-03T13:48:23;5.40;;;4.90;;
11034;SDS011;5571;48.110;-1.706;2023-04-03T13:51:03;4.73;;;4.33;;
11034;SDS011;5571;48.110;-1.706;2023-04-03T13:53:46;4.67;;;4.20;;
11034;SDS011;5571;48.110;-1.706;2023-04-03T13:56:31;5.00;;;4.47;;
11034;SDS011;5571;48.110;-1.706;2023-04-03T14:01:44;5.97;;;4.90;;
11034;SDS011;5571;48.110;-1.706;2023-04-03T14:04:18;8.00;;;5.20;;
11034;SDS011;5571;48.110;-1.706;2023-04-03T14:06:44;5.60;;;4.70;;
11034;SDS011;5571;48.110;-1.706;2023-04-03T14:09:11;5.30;;;4.80;;
11034;SDS011;5571;48.110;-1.706;2023-04-03T14:11:37;4.60;;;4.20;;
11034;SDS011;5571;48.110;-1.706;2023-04-03T14:14:50;6.17;;;4.70;;
11034;SDS011;5571;48.110;-1.706;2023-04-03T14:16:56;5.60;;;5.00;;
11034;SDS011;5571;48.110;-1.706;2023-04-03T14:19:34;5.27;;;4.20;;
11034;SDS011;5571;48.110;-1.706;2023-04-03T14:22:01;5.07;;;4.38;;
11034;SDS011;5571;48.110;-1.706;2023-04-03T14:24:37;5.90;;;4.50;;
11034;SDS011;5571;48.110;-1.706;2023-04-03T14:27:05;5.47;;;4.40;;
11034;SDS011;5571;48.110;-1.706;2023-04-03T14:29:38;4.82;;;4.40;;
11034;SDS011;5571;48.110;-1.706;2023-04-03T14:32:05;5.30;;;4.80;;
11034;SDS011;5571;48.110;-1.706;2023-04-03T14:34:31;4.75;;;4.22;;
11034;SDS011;5571;48.110;-1.706;2023-04-03T14:36:56;5.60;;;4.57;;
11034;SDS011;5571;48.110;-1.706;2023-04-03T14:39:22;5.97;;;4.32;;
11034;SDS011;5571;48.110;-1.706;2023-04-03T14:41:48;8.70;;;4.50;;
11034;SDS011;5571;48.110;-1.706;2023-04-03T14:44:13;5.45;;;4.70;;
11034;SDS011;5571;48.110;-1.706;2023-04-03T14:46:41;4.85;;;4.45;;
11034;SDS011;5571;48.110;-1.706;2023-04-03T14:49:12;4.65;;;3.97;;
11034;SDS011;5571;48.110;-1.706;2023-04-03T14:51:59;7.53;;;5.83;;
11034;SDS011;5571;48.110;-1.706;2023-04-03T14:54:25;6.43;;;4.97;;
11034;SDS011;5571;48.110;-1.706;2023-04-03T14:56:52;5.82;;;5.15;;
11034;SDS011;5571;48.110;-1.706;2023-04-03T14:59:20;8.77;;;6.37;;
11034;SDS011;5571;48.110;-1.706;2023-04-03T15:01:46;5.93;;;4.90;;
11034;SDS011;5571;48.110;-1.706;2023-04-03T15:04:13;4.30;;;3.90;;
11034;SDS011;5571;48.110;-1.706;2023-04-03T15:06:43;5.37;;;3.93;;
11034;SDS011;5571;48.110;-1.706;2023-04-03T15:09:15;4.87;;;3.93;;
11034;SDS011;5571;48.110;-1.706;2023-04-03T15:11:51;4.60;;;4.03;;
11034;SDS011;5571;48.110;-1.706;2023-04-03T15:14:18;4.00;;;3.60;;
11034;SDS011;5571;48.110;-1.706;2023-04-03T15:16:44;4.00;;;3.70;;
11034;SDS011;5571;48.110;-1.706;2023-04-03T15:19:10;5.53;;;3.90;;
11034;SDS011;5571;48.110;-1.706;2023-04-03T15:21:37;6.17;;;4.20;;
11034;SDS011;5571;48.110;-1.706;2023-04-03T15:24:03;5.47;;;4.47;;
11034;SDS011;5571;48.110;-1.706;2023-04-03T15:26:29;4.10;;;3.72;;
11034;SDS011;5571;48.110;-1.706;2023-04-03T15:28:55;4.15;;;3.75;;
11034;SDS011;5571;48.110;-1.706;2023-04-03T15:31:20;5.33;;;4.53;;
11034;SDS011;5571;48.110;-1.706;2023-04-03T15:33:46;5.05;;;3.90;;
11034;SDS011;5571;48.110;-1.706;2023-04-03T15:36:12;3.77;;;3.47;;
11034;SDS011;5571;48.110;-1.706;2023-04-03T15:38:37;5.60;;;4.03;;
11034;SDS011;5571;48.110;-1.706;2023-04-03T15:41:04;5.50;;;5.00;;
11034;SDS011;5571;48.110;-1.706;2023-04-03T15:43:30;5.13;;;4.63;;
11034;SDS011;5571;48.110;-1.706;2023-04-03T15:45:56;5.17;;;4.50;;
11034;SDS011;5571;48.110;-1.706;2023-04-03T15:48:24;5.27;;;4.50;;
11034;SDS011;5571;48.110;-1.706;2023-04-03T15:50:51;5.10;;;4.60;;
11034;SDS011;5571;48.110;-1.706;2023-04-03T15:53:17;4.70;;;4.20;;
11034;SDS011;5571;48.110;-1.706;2023-04-03T15:55:42;9.93;;;4.17;;
11034;SDS011;5571;48.110;-1.706;2023-04-03T15:58:08;5.10;;;4.60;;
11034;SDS011;5571;48.110;-1.706;2023-04-03T16:00:34;4.40;;;4.00;;
11034;SDS011;5571;48.110;-1.706;2023-04-03T16:03:04;4.50;;;4.10;;
11034;SDS011;5571;48.110;-1.706;2023-04-03T16:05:36;4.60;;;4.10;;
11034;SDS011;5571;48.110;-1.706;2023-04-03T16:08:03;5.23;;;4.00;;
11034;SDS011;5571;48.110;-1.706;2023-04-03T16:10:30;5.40;;;4.10;;
11034;SDS011;5571;48.110;-1.706;2023-04-03T16:12:56;5.33;;;4.43;;
11034;SDS011;5571;48.110;-1.706;2023-04-03T16:15:22;5.27;;;4.37;;
11034;SDS011;5571;48.110;-1.706;2023-04-03T16:17:49;5.63;;;3.97;;
11034;SDS011;5571;48.110;-1.706;2023-04-03T16:20:15;4.07;;;3.77;;
11034;SDS011;5571;48.110;-1.706;2023-04-03T16:22:41;4.50;;;4.10;;
11034;SDS011;5571;48.110;-1.706;2023-04-03T16:25:07;4.50;;;4.10;;
11034;SDS011;5571;48.110;-1.706;2023-04-03T16:27:34;3.90;;;3.60;;
11034;SDS011;5571;48.110;-1.706;2023-04-03T16:29:59;4.47;;;4.07;;
11034;SDS011;5571;48.110;-1.706;2023-04-03T16:32:26;4.63;;;4.23;;
11034;SDS011;5571;48.110;-1.706;2023-04-03T16:34:55;4.13;;;3.70;;
11034;SDS011;5571;48.110;-1.706;2023-04-03T16:37:21;4.70;;;4.27;;
11034;SDS011;5571;48.110;-1.706;2023-04-03T16:39:46;4.40;;;3.93;;
11034;SDS011;5571;48.110;-1.706;2023-04-03T16:42:12;5.00;;;4.27;;
11034;SDS011;5571;48.110;-1.706;2023-04-03T16:44:37;4.57;;;4.27;;
11034;SDS011;5571;48.110;-1.706;2023-04-03T16:47:04;4.27;;;3.97;;
11034;SDS011;5571;48.110;-1.706;2023-04-03T16:49:30;5.10;;;4.13;;